createdAt,value
2023-04-06T00:00:11.188Z,100823.06
2023-04-06T00:02:38.037Z,100827.19
2023-04-06T00:05:05.057Z,100821.84
2023-04-06T00:07:31.754Z,100823.91
2023-04-06T00:09:58.381Z,100822.84
2023-04-06T00:12:25.290Z,100824.91
2023-04-06T00:14:51.942Z,100826.75
2023-04-06T00:17:18.802Z,100823.69
2023-04-06T00:19:45.502Z,100815.66
2023-04-06T00:22:12.344Z,100823.63
2023-04-06T00:24:39.073Z,100823.06
2023-04-06T00:27:05.723Z,100817.69
2023-04-06T00:29:32.386Z,100810.44
2023-04-06T00:31:59.083Z,100811.53
2023-04-06T00:34:25.826Z,100808.88
2023-04-06T00:36:52.504Z,100805.91
2023-04-06T00:39:20.948Z,100807.34
2023-04-06T00:41:52.322Z,100806.78
2023-04-06T00:44:19.971Z,100813.56
2023-04-06T00:46:46.735Z,100807.38
2023-04-06T00:49:13.439Z,100804.53
2023-04-06T00:51:40.849Z,100805.19
2023-04-06T00:54:07.999Z,100798.16
2023-04-06T00:56:36.440Z,100799.84
2023-04-06T00:59:03.523Z,100791.94
2023-04-06T01:01:33.290Z,100790.34
2023-04-06T01:04:04.695Z,100790.16
2023-04-06T01:06:38.241Z,100780.03
2023-04-06T01:09:04.904Z,100784.91
2023-04-06T01:11:32.358Z,100785.44
2023-04-06T01:13:59.764Z,100784.41
2023-04-06T01:16:43.131Z,100777.22
2023-04-06T01:19:14.111Z,100768.75
2023-04-06T01:21:54.160Z,100779.63
2023-04-06T01:24:29.950Z,100774.72
2023-04-06T01:27:03.853Z,100767.13
2023-04-06T01:29:52.849Z,100769.50
2023-04-06T01:32:41.993Z,100770.47
2023-04-06T01:35:11.273Z,100770.03
2023-04-06T01:37:45.672Z,100768.22
2023-04-06T01:40:17.315Z,100763.63
2023-04-06T01:42:48.736Z,100759.22
2023-04-06T01:45:22.816Z,100760.41
2023-04-06T01:47:51.351Z,100762.41
2023-04-06T01:50:19.000Z,100759.47
2023-04-06T01:52:47.439Z,100759.47
2023-04-06T01:55:14.434Z,100751.19
2023-04-06T01:58:06.646Z,100750.81
2023-04-06T02:00:38.151Z,100750.50
2023-04-06T02:03:05.015Z,100752.78
2023-04-06T02:05:38.600Z,100750.44
2023-04-06T02:08:15.957Z,100751.75
2023-04-06T02:10:42.676Z,100757.47
2023-04-06T02:13:18.936Z,100761.09
2023-04-06T02:15:49.685Z,100768.25
2023-04-06T02:18:18.580Z,100757.91
2023-04-06T02:20:46.606Z,100764.94
2023-04-06T02:23:13.990Z,100760.69
2023-04-06T02:25:41.155Z,100752.19
2023-04-06T02:28:08.359Z,100754.56
2023-04-06T02:30:35.940Z,100759.97
2023-04-06T02:33:03.404Z,100744.25
2023-04-06T02:35:38.217Z,100741.28
2023-04-06T02:38:05.008Z,100748.81
2023-04-06T02:40:31.689Z,100750.81
2023-04-06T02:43:05.299Z,100747.66
2023-04-06T02:45:32.512Z,100751.16
2023-04-06T02:48:01.509Z,100758.03
2023-04-06T02:50:29.971Z,100750.38
2023-04-06T02:53:01.749Z,100742.00
2023-04-06T02:55:28.479Z,100747.97
2023-04-06T02:57:55.354Z,100737.09
2023-04-06T03:00:27.382Z,100738.53
2023-04-06T03:02:54.193Z,100742.03
2023-04-06T03:05:21.645Z,100731.38
2023-04-06T03:07:48.926Z,100735.75
2023-04-06T03:10:24.639Z,100747.28
2023-04-06T03:12:51.306Z,100738.84
2023-04-06T03:15:22.706Z,100743.09
2023-04-06T03:17:54.738Z,100741.72
2023-04-06T03:20:36.106Z,100736.41
2023-04-06T03:23:03.018Z,100741.50
2023-04-06T03:25:35.237Z,100745.38
2023-04-06T03:28:05.010Z,100742.81
2023-04-06T03:30:35.578Z,100744.28
2023-04-06T03:33:02.542Z,100744.44
2023-04-06T03:35:33.894Z,100748.03
2023-04-06T03:38:00.662Z,100750.47
2023-04-06T03:40:28.224Z,100750.69
2023-04-06T03:42:54.872Z,100754.88
2023-04-06T03:45:22.125Z,100756.88
2023-04-06T03:47:51.087Z,100756.06
2023-04-06T03:50:19.204Z,100752.72
2023-04-06T03:52:46.011Z,100752.88
2023-04-06T03:55:12.713Z,100758.13
2023-04-06T03:57:39.521Z,100765.84
2023-04-06T04:00:07.025Z,100763.72
2023-04-06T04:02:40.174Z,100762.53
2023-04-06T04:05:07.459Z,100770.22
2023-04-06T04:07:34.081Z,100764.81
2023-04-06T04:10:00.974Z,100761.00
2023-04-06T04:12:28.086Z,100760.56
2023-04-06T04:14:54.775Z,100767.75
2023-04-06T04:17:23.067Z,100766.91
2023-04-06T04:19:49.719Z,100768.66
2023-04-06T04:22:16.658Z,100772.53
2023-04-06T04:24:44.222Z,100771.28
2023-04-06T04:27:11.033Z,100773.44
2023-04-06T04:29:39.160Z,100775.81
2023-04-06T04:32:09.235Z,100775.94
2023-04-06T04:34:36.581Z,100775.19
2023-04-06T04:37:05.961Z,100778.41
2023-04-06T04:39:44.225Z,100775.91
2023-04-06T04:42:11.503Z,100775.28
2023-04-06T04:44:44.121Z,100773.69
2023-04-06T04:47:11.253Z,100780.72
2023-04-06T04:49:43.662Z,100777.34
2023-04-06T04:52:12.302Z,100770.97
2023-04-06T04:54:51.020Z,100782.34
2023-04-06T04:57:24.751Z,100782.44
2023-04-06T04:59:51.864Z,100777.78
2023-04-06T05:02:19.988Z,100781.91
2023-04-06T05:05:12.652Z,100791.91
2023-04-06T05:07:41.125Z,100781.56
2023-04-06T05:10:12.243Z,100790.69
2023-04-06T05:12:49.452Z,100790.97
2023-04-06T05:15:16.199Z,100793.38
2023-04-06T05:17:43.054Z,100796.78
2023-04-06T05:20:13.630Z,100799.00
2023-04-06T05:22:46.783Z,100787.81
2023-04-06T05:25:14.550Z,100792.72
2023-04-06T05:27:41.903Z,100792.75
2023-04-06T05:30:20.379Z,100787.16
2023-04-06T05:32:48.951Z,100787.78
2023-04-06T05:35:18.054Z,100797.16
2023-04-06T05:37:48.135Z,100794.25
2023-04-06T05:40:14.897Z,100802.34
2023-04-06T05:42:43.438Z,100804.97
2023-04-06T05:45:12.243Z,100809.38
2023-04-06T05:47:40.522Z,100802.50
2023-04-06T05:50:19.422Z,100807.22
2023-04-06T05:52:47.353Z,100801.88
2023-04-06T05:55:17.108Z,100813.47
2023-04-06T05:57:47.940Z,100810.31
2023-04-06T06:00:17.854Z,100809.97
2023-04-06T06:02:53.775Z,100812.09
2023-04-06T06:05:24.380Z,100810.91
2023-04-06T06:07:51.354Z,100804.34
2023-04-06T06:10:18.010Z,100816.94
2023-04-06T06:12:44.895Z,100811.16
2023-04-06T06:15:12.633Z,100818.25
2023-04-06T06:17:43.872Z,100812.00
2023-04-06T06:20:11.678Z,100804.34
2023-04-06T06:22:39.049Z,100806.50
2023-04-06T06:25:07.684Z,100806.91
2023-04-06T06:27:34.409Z,100799.19
2023-04-06T06:30:01.142Z,100798.66
2023-04-06T06:32:31.371Z,100806.38
2023-04-06T06:34:59.203Z,100809.47
2023-04-06T06:37:25.880Z,100800.84
2023-04-06T06:39:52.783Z,100800.03
2023-04-06T06:42:21.313Z,100803.13
2023-04-06T06:45:15.231Z,100802.09
2023-04-06T06:47:42.152Z,100808.91
2023-04-06T06:50:11.321Z,100811.56
2023-04-06T06:52:38.041Z,100806.19
2023-04-06T06:55:04.922Z,100803.91
2023-04-06T06:57:31.584Z,100818.53
2023-04-06T06:59:58.279Z,100813.63
2023-04-06T07:02:25.077Z,100816.25
2023-04-06T07:04:51.842Z,100814.97
2023-04-06T07:07:18.648Z,100809.00
2023-04-06T07:09:45.424Z,100812.66
2023-04-06T07:12:12.096Z,100813.41
2023-04-06T07:14:38.747Z,100810.00
2023-04-06T07:17:05.421Z,100813.59
2023-04-06T07:19:32.329Z,100810.56
2023-04-06T07:21:59.351Z,100803.19
2023-04-06T07:24:27.465Z,100812.56
2023-04-06T07:26:54.149Z,100811.75
2023-04-06T07:29:20.796Z,100815.66
2023-04-06T07:31:47.897Z,100812.56
2023-04-06T07:34:16.221Z,100808.97
2023-04-06T07:36:42.959Z,100812.03
2023-04-06T07:39:10.191Z,100817.59
2023-04-06T07:41:37.009Z,100818.22
2023-04-06T07:44:04.790Z,100817.19
2023-04-06T07:46:31.968Z,100822.03
2023-04-06T07:49:04.305Z,100822.41
2023-04-06T07:51:37.200Z,100823.91
2023-04-06T07:54:04.295Z,100813.66
2023-04-06T07:56:31.116Z,100814.63
2023-04-06T07:58:58.985Z,100817.44
2023-04-06T08:01:25.645Z,100813.03
2023-04-06T08:03:52.347Z,100814.19
2023-04-06T08:06:19.234Z,100812.19
2023-04-06T08:08:46.023Z,100815.31
2023-04-06T08:11:12.712Z,100820.03
2023-04-06T08:13:39.401Z,100806.59
2023-04-06T08:16:06.350Z,100810.66
2023-04-06T08:18:33.097Z,100815.75
2023-04-06T08:20:59.715Z,100820.34
2023-04-06T08:23:26.368Z,100808.47
2023-04-06T08:25:55.149Z,100820.38
2023-04-06T08:28:22.359Z,100817.66
2023-04-06T08:30:49.190Z,100819.31
2023-04-06T08:33:16.409Z,100816.38
2023-04-06T08:35:43.079Z,100823.16
2023-04-06T08:38:09.828Z,100813.16
2023-04-06T08:40:40.247Z,100821.69
2023-04-06T08:43:13.629Z,100828.91
2023-04-06T08:45:42.006Z,100823.56
2023-04-06T08:48:09.997Z,100818.03
2023-04-06T08:50:38.890Z,100821.47
2023-04-06T08:53:06.949Z,100820.97
2023-04-06T08:55:33.803Z,100809.03
2023-04-06T08:58:01.382Z,100815.63
2023-04-06T09:00:29.220Z,100810.56
2023-04-06T09:02:58.288Z,100812.09
2023-04-06T09:05:26.611Z,100808.38
2023-04-06T09:07:53.728Z,100799.06
2023-04-06T09:10:21.572Z,100794.56
2023-04-06T09:12:48.410Z,100805.69
2023-04-06T09:15:24.551Z,100805.84
2023-04-06T09:17:54.829Z,100806.66
2023-04-06T09:20:29.292Z,100810.22
2023-04-06T09:22:56.622Z,100809.28
2023-04-06T09:25:26.455Z,100807.44
2023-04-06T09:28:01.127Z,100810.44
2023-04-06T09:30:28.058Z,100802.97
2023-04-06T09:33:00.256Z,100798.94
2023-04-06T09:35:27.932Z,100806.13
2023-04-06T09:37:54.886Z,100803.06
2023-04-06T09:40:23.074Z,100803.28
2023-04-06T09:42:53.931Z,100809.38
2023-04-06T09:45:21.794Z,100799.38
2023-04-06T09:47:49.293Z,100794.81
2023-04-06T09:50:17.403Z,100798.25
2023-04-06T09:52:50.378Z,100801.19
2023-04-06T09:55:43.656Z,100797.44
2023-04-06T09:58:27.021Z,100794.41
2023-04-06T10:01:16.532Z,100790.88
2023-04-06T10:03:56.047Z,100783.16
2023-04-06T10:06:24.198Z,100788.94
2023-04-06T10:08:56.171Z,100790.72
2023-04-06T10:11:23.339Z,100781.34
2023-04-06T10:13:51.041Z,100783.63
2023-04-06T10:16:18.460Z,100785.59
2023-04-06T10:18:50.261Z,100779.09
2023-04-06T10:21:24.565Z,100783.06
2023-04-06T10:24:02.732Z,100778.25
2023-04-06T10:26:29.415Z,100769.34
2023-04-06T10:28:56.261Z,100780.19
2023-04-06T10:31:28.421Z,100783.06
2023-04-06T10:33:56.706Z,100770.22
2023-04-06T10:36:27.270Z,100782.69
2023-04-06T10:39:01.711Z,100775.88
2023-04-06T10:41:46.624Z,100776.75
2023-04-06T10:44:23.909Z,100778.56
2023-04-06T10:46:57.583Z,100772.34
2023-04-06T10:49:27.446Z,100764.63
2023-04-06T10:51:55.648Z,100766.03
2023-04-06T10:54:24.594Z,100755.75
2023-04-06T10:56:51.259Z,100754.06
2023-04-06T10:59:22.586Z,100745.63
2023-04-06T11:01:49.719Z,100756.81
2023-04-06T11:04:21.067Z,100743.78
2023-04-06T11:06:49.673Z,100753.81
2023-04-06T11:09:30.299Z,100748.63
2023-04-06T11:11:57.943Z,100735.69
2023-04-06T11:14:24.875Z,100738.38
2023-04-06T11:16:51.929Z,100736.63
2023-04-06T11:19:19.026Z,100726.28
2023-04-06T11:21:48.553Z,100732.66
2023-04-06T11:24:20.937Z,100725.31
2023-04-06T11:26:51.829Z,100727.75
2023-04-06T11:29:23.149Z,100715.44
2023-04-06T11:31:52.015Z,100719.31
2023-04-06T11:34:23.737Z,100708.41
2023-04-06T11:37:06.916Z,100715.47
2023-04-06T11:39:42.912Z,100710.28
2023-04-06T11:42:10.138Z,100706.38
2023-04-06T11:44:43.424Z,100700.69
2023-04-06T11:47:11.955Z,100702.75
2023-04-06T11:49:40.785Z,100701.09
2023-04-06T11:52:28.220Z,100696.38
2023-04-06T11:54:57.752Z,100684.78
2023-04-06T11:57:28.988Z,100694.16
2023-04-06T11:59:56.306Z,100692.47
2023-04-06T12:02:23.174Z,100684.13
2023-04-06T12:04:50.066Z,100684.09
2023-04-06T12:07:16.848Z,100685.94
2023-04-06T12:09:44.129Z,100684.44
2023-04-06T12:12:11.006Z,100683.72
2023-04-06T12:14:37.767Z,100680.78
2023-04-06T12:17:04.434Z,100683.81
2023-04-06T12:19:31.238Z,100680.22
2023-04-06T12:21:59.089Z,100676.25
2023-04-06T12:24:25.874Z,100671.25
2023-04-06T12:26:59.656Z,100674.53
2023-04-06T12:29:33.736Z,100665.47
2023-04-06T12:32:02.348Z,100669.91
2023-04-06T12:34:29.238Z,100664.47
2023-04-06T12:36:56.718Z,100663.50
2023-04-06T12:39:23.670Z,100667.88
2023-04-06T12:41:50.329Z,100659.16
2023-04-06T12:44:16.945Z,100660.72
2023-04-06T12:46:44.402Z,100657.16
2023-04-06T12:49:11.282Z,100653.13
2023-04-06T12:51:37.945Z,100659.38
2023-04-06T12:54:04.686Z,100646.00
2023-04-06T12:56:31.985Z,100654.09
2023-04-06T12:58:58.755Z,100646.56
2023-04-06T13:01:26.676Z,100638.34
2023-04-06T13:03:53.403Z,100645.44
2023-04-06T13:06:20.166Z,100638.31
2023-04-06T13:08:48.281Z,100647.63
2023-04-06T13:11:15.595Z,100636.09
2023-04-06T13:13:42.424Z,100633.28
2023-04-06T13:16:09.902Z,100634.59
2023-04-06T13:18:39.525Z,100624.31
2023-04-06T13:21:08.040Z,100618.94
2023-04-06T13:23:36.293Z,100630.53
2023-04-06T13:26:05.834Z,100623.75
2023-04-06T13:28:34.107Z,100630.50
2023-04-06T13:31:02.237Z,100633.03
2023-04-06T13:33:29.567Z,100628.03
2023-04-06T13:35:56.544Z,100627.28
2023-04-06T13:38:25.199Z,100616.22
2023-04-06T13:40:52.447Z,100624.75
2023-04-06T13:43:22.308Z,100625.47
2023-04-06T13:45:55.688Z,100622.22
2023-04-06T13:48:22.572Z,100621.88
2023-04-06T13:50:49.462Z,100613.53
2023-04-06T13:53:17.247Z,100614.94
2023-04-06T13:55:44.153Z,100617.00
2023-04-06T13:58:10.859Z,100623.03
2023-04-06T14:00:37.983Z,100614.25
2023-04-06T14:03:05.012Z,100610.13
2023-04-06T14:05:33.194Z,100611.63
2023-04-06T14:07:59.860Z,100617.31
2023-04-06T14:10:28.429Z,100612.69
2023-04-06T14:12:55.464Z,100616.63
2023-04-06T14:15:23.442Z,100616.56
2023-04-06T14:17:50.314Z,100613.31
2023-04-06T14:20:17.037Z,100612.16
2023-04-06T14:22:43.998Z,100621.94
2023-04-06T14:25:12.163Z,100606.19
2023-04-06T14:27:39.645Z,100611.34
2023-04-06T14:30:07.119Z,100608.94
2023-04-06T14:32:33.918Z,100604.59
2023-04-06T14:35:00.547Z,100607.28
2023-04-06T14:37:27.276Z,100601.34
2023-04-06T14:39:53.961Z,100608.44
2023-04-06T14:42:20.708Z,100612.31
2023-04-06T14:44:47.494Z,100598.34
2023-04-06T14:47:16.691Z,100606.81
2023-04-06T14:49:43.363Z,100593.38
2023-04-06T14:52:10.041Z,100602.31
2023-04-06T14:54:36.624Z,100594.59
2023-04-06T14:57:03.350Z,100597.03
2023-04-06T14:59:30.229Z,100585.13
2023-04-06T15:01:57.316Z,100589.47
2023-04-06T15:04:24.147Z,100595.81
2023-04-06T15:06:51.051Z,100589.44
2023-04-06T15:09:17.656Z,100586.53
2023-04-06T15:11:44.274Z,100598.38
2023-04-06T15:14:11.122Z,100590.59
2023-04-06T15:16:37.886Z,100594.53
2023-04-06T15:19:04.530Z,100590.69
2023-04-06T15:21:32.030Z,100591.94
2023-04-06T15:23:58.809Z,100589.78
2023-04-06T15:26:27.220Z,100588.03
2023-04-06T15:28:53.851Z,100587.25
2023-04-06T15:31:36.850Z,100588.84
2023-04-06T15:34:08.634Z,100593.22
2023-04-06T15:36:36.214Z,100592.75
2023-04-06T15:39:04.212Z,100588.53
2023-04-06T15:41:31.769Z,100593.91
2023-04-06T15:43:58.768Z,100594.88
2023-04-06T15:46:27.624Z,100596.72
2023-04-06T15:48:54.683Z,100595.97
2023-04-06T15:51:21.532Z,100594.84
2023-04-06T15:53:48.287Z,100595.84
2023-04-06T15:56:14.953Z,100601.66
2023-04-06T15:58:42.208Z,100597.56
2023-04-06T16:01:15.993Z,100594.47
2023-04-06T16:03:43.677Z,100590.81
2023-04-06T16:06:10.901Z,100599.31
2023-04-06T16:08:39.825Z,100596.06
2023-04-06T16:11:06.853Z,100595.97
2023-04-06T16:13:33.996Z,100586.59
2023-04-06T16:16:01.075Z,100593.78
2023-04-06T16:18:27.928Z,100597.88
2023-04-06T16:20:54.657Z,100593.13
2023-04-06T16:23:21.610Z,100596.44
2023-04-06T16:25:48.492Z,100596.63
2023-04-06T16:28:15.205Z,100602.03
2023-04-06T16:30:44.722Z,100592.19
2023-04-06T16:33:13.664Z,100599.00
2023-04-06T16:35:47.267Z,100594.06
2023-04-06T16:38:15.267Z,100605.06
2023-04-06T16:40:42.296Z,100604.03
2023-04-06T16:43:09.949Z,100609.56
2023-04-06T16:45:37.882Z,100600.69
2023-04-06T16:48:04.903Z,100606.47
2023-04-06T16:50:31.612Z,100614.38
2023-04-06T16:52:58.559Z,100611.44
2023-04-06T16:55:25.351Z,100613.88
2023-04-06T16:57:55.814Z,100615.13
2023-04-06T17:00:22.934Z,100608.50
2023-04-06T17:02:49.858Z,100607.03
2023-04-06T17:05:20.684Z,100615.50
2023-04-06T17:07:47.302Z,100616.03
2023-04-06T17:10:13.966Z,100613.75
2023-04-06T17:12:40.832Z,100613.47
2023-04-06T17:15:08.248Z,100608.91
2023-04-06T17:17:34.836Z,100607.22
2023-04-06T17:20:01.646Z,100611.78
2023-04-06T17:22:28.395Z,100619.59
2023-04-06T17:24:55.466Z,100617.72
2023-04-06T17:27:23.564Z,100608.59
2023-04-06T17:29:50.530Z,100610.47
2023-04-06T17:32:19.173Z,100611.09
2023-04-06T17:34:45.842Z,100615.84
2023-04-06T17:37:12.436Z,100611.16
2023-04-06T17:39:39.131Z,100616.56
2023-04-06T17:42:05.965Z,100613.66
2023-04-06T17:44:33.396Z,100620.66
2023-04-06T17:47:00.362Z,100621.41
2023-04-06T17:49:27.020Z,100621.19
2023-04-06T17:51:53.705Z,100624.75
2023-04-06T17:54:20.526Z,100630.63
2023-04-06T17:56:49.087Z,100632.09
2023-04-06T17:59:16.067Z,100635.31
2023-04-06T18:01:42.835Z,100640.31
2023-04-06T18:04:09.602Z,100644.84
2023-04-06T18:06:36.943Z,100658.50
2023-04-06T18:09:03.810Z,100654.63
2023-04-06T18:11:32.671Z,100653.91
2023-04-06T18:13:59.680Z,100652.69
2023-04-06T18:16:26.845Z,100661.81
2023-04-06T18:18:55.555Z,100665.91
2023-04-06T18:21:22.295Z,100669.50
2023-04-06T18:23:49.506Z,100675.03
2023-04-06T18:26:18.612Z,100679.06
2023-04-06T18:28:46.881Z,100681.75
2023-04-06T18:31:14.271Z,100685.38
2023-04-06T18:33:41.068Z,100692.25
2023-04-06T18:36:08.026Z,100693.56
2023-04-06T18:38:34.670Z,100695.44
2023-04-06T18:41:01.378Z,100703.97
2023-04-06T18:43:28.503Z,100705.59
2023-04-06T18:45:56.420Z,100713.56
2023-04-06T18:48:24.075Z,100711.78
2023-04-06T18:51:01.747Z,100714.00
2023-04-06T18:53:28.915Z,100711.44
2023-04-06T18:55:58.563Z,100718.75
2023-04-06T18:58:26.176Z,100724.66
2023-04-06T19:00:54.181Z,100720.53
2023-04-06T19:03:22.150Z,100721.25
2023-04-06T19:05:49.898Z,100730.31
2023-04-06T19:08:17.598Z,100732.72
2023-04-06T19:10:49.648Z,100725.03
2023-04-06T19:13:17.775Z,100730.38
2023-04-06T19:15:48.247Z,100731.69
2023-04-06T19:18:15.558Z,100721.31
2023-04-06T19:20:42.504Z,100730.59
2023-04-06T19:23:09.880Z,100727.31
2023-04-06T19:25:37.346Z,100735.59
2023-04-06T19:28:04.896Z,100732.63
2023-04-06T19:30:31.820Z,100734.97
2023-04-06T19:33:02.741Z,100729.09
2023-04-06T19:35:29.922Z,100727.03
2023-04-06T19:37:56.651Z,100734.78
2023-04-06T19:40:23.542Z,100726.56
2023-04-06T19:42:50.385Z,100732.75
2023-04-06T19:45:17.120Z,100736.03
2023-04-06T19:47:43.943Z,100732.63
2023-04-06T19:50:11.546Z,100725.03
2023-04-06T19:52:38.379Z,100732.75
2023-04-06T19:55:05.386Z,100726.41
2023-04-06T19:57:32.104Z,100728.44
2023-04-06T19:59:58.777Z,100722.81
2023-04-06T20:02:25.841Z,100727.03
2023-04-06T20:04:52.536Z,100728.66
2023-04-06T20:07:19.699Z,100723.47
2023-04-06T20:09:46.905Z,100733.97
2023-04-06T20:12:13.528Z,100724.75
2023-04-06T20:14:40.382Z,100726.00
2023-04-06T20:17:07.141Z,100725.25
2023-04-06T20:19:33.927Z,100728.97
2023-04-06T20:22:03.237Z,100731.91
2023-04-06T20:24:31.332Z,100722.25
2023-04-06T20:26:58.136Z,100721.91
2023-04-06T20:29:24.868Z,100727.91
2023-04-06T20:31:51.967Z,100719.03
2023-04-06T20:34:19.082Z,100726.31
2023-04-06T20:36:46.146Z,100717.94
2023-04-06T20:39:13.052Z,100725.09
2023-04-06T20:41:39.748Z,100714.59
2023-04-06T20:44:07.152Z,100711.69
2023-04-06T20:46:33.874Z,100711.84
2023-04-06T20:49:00.892Z,100704.75
2023-04-06T20:51:27.665Z,100710.03
2023-04-06T20:53:54.455Z,100703.00
2023-04-06T20:56:21.903Z,100702.56
2023-04-06T20:58:49.063Z,100709.22
2023-04-06T21:01:17.652Z,100699.53
2023-04-06T21:03:45.284Z,100698.03
2023-04-06T21:06:12.570Z,100702.47
2023-04-06T21:08:39.423Z,100688.56
2023-04-06T21:11:06.635Z,100683.78
2023-04-06T21:13:34.158Z,100679.13
2023-04-06T21:16:01.650Z,100677.13
2023-04-06T21:18:31.413Z,100675.28
2023-04-06T21:20:58.293Z,100672.78
2023-04-06T21:23:24.992Z,100674.38
2023-04-06T21:25:51.997Z,100670.22
2023-04-06T21:28:18.967Z,100668.66
2023-04-06T21:30:45.805Z,100667.63
2023-04-06T21:33:12.618Z,100667.88
2023-04-06T21:35:40.752Z,100658.41
2023-04-06T21:38:08.209Z,100656.22
2023-04-06T21:40:35.492Z,100666.72
2023-04-06T21:43:02.593Z,100662.19
2023-04-06T21:45:29.375Z,100651.84
2023-04-06T21:47:56.064Z,100651.78
2023-04-06T21:50:22.799Z,100657.38
2023-04-06T21:52:49.677Z,100653.78
2023-04-06T21:55:16.382Z,100646.91
2023-04-06T21:57:44.407Z,100649.72
2023-04-06T22:00:12.008Z,100645.63
2023-04-06T22:02:45.661Z,100643.41
2023-04-06T22:05:13.095Z,100649.50
2023-04-06T22:07:39.953Z,100638.44
2023-04-06T22:10:07.334Z,100630.88
2023-04-06T22:12:34.179Z,100632.00
2023-04-06T22:15:00.910Z,100638.72
2023-04-06T22:17:27.732Z,100632.59
2023-04-06T22:19:54.441Z,100638.44
2023-04-06T22:22:21.270Z,100633.25
2023-04-06T22:24:48.214Z,100625.44
2023-04-06T22:27:14.997Z,100632.00
2023-04-06T22:29:42.725Z,100637.81
2023-04-06T22:32:09.706Z,100629.41
2023-04-06T22:34:37.264Z,100629.28
2023-04-06T22:37:04.639Z,100623.44
2023-04-06T22:39:31.476Z,100624.50
2023-04-06T22:41:59.450Z,100624.47
2023-04-06T22:44:26.305Z,100617.88
2023-04-06T22:46:53.371Z,100615.91
2023-04-06T22:49:20.354Z,100611.75
2023-04-06T22:51:47.136Z,100615.66
2023-04-06T22:54:14.475Z,100615.53
2023-04-06T22:56:41.515Z,100617.13
2023-04-06T22:59:08.271Z,100608.78
2023-04-06T23:01:35.008Z,100608.06
2023-04-06T23:04:02.095Z,100609.72
2023-04-06T23:06:29.015Z,100607.81
2023-04-06T23:08:55.686Z,100604.44
2023-04-06T23:11:22.498Z,100599.50
2023-04-06T23:13:49.186Z,100597.75
2023-04-06T23:16:16.052Z,100596.50
2023-04-06T23:18:43.040Z,100593.81
2023-04-06T23:21:09.792Z,100591.53
2023-04-06T23:23:36.529Z,100595.81
2023-04-06T23:26:03.131Z,100589.16
2023-04-06T23:28:29.824Z,100583.53
2023-04-06T23:30:56.614Z,100591.38
2023-04-06T23:33:23.327Z,100580.25
2023-04-06T23:35:51.006Z,100587.25
2023-04-06T23:38:17.828Z,100576.28
2023-04-06T23:40:44.886Z,100578.97
2023-04-06T23:43:11.528Z,100572.91
2023-04-06T23:45:42.896Z,100572.81
2023-04-06T23:48:10.161Z,100574.91
2023-04-06T23:50:37.615Z,100567.44
2023-04-06T23:53:04.707Z,100562.66
2023-04-06T23:55:31.601Z,100555.34
2023-04-06T23:57:58.891Z,100550.28
